createdAt,value
2018-02-15T00:00:52.532Z,-3.00
2018-02-15T00:03:21.299Z,-3.00
2018-02-15T00:05:50.134Z,-2.90
2018-02-15T00:08:18.994Z,-2.90
2018-02-15T00:10:47.801Z,-2.90
2018-02-15T00:13:16.658Z,-2.90
2018-02-15T00:15:45.483Z,-2.80
2018-02-15T00:18:14.342Z,-2.80
2018-02-15T00:20:43.927Z,-2.70
2018-02-15T00:23:12.757Z,-2.70
2018-02-15T00:25:41.609Z,-2.60
2018-02-15T00:28:10.131Z,-2.60
2018-02-15T00:30:38.966Z,-2.60
2018-02-15T00:33:07.833Z,-2.60
2018-02-15T00:35:36.658Z,-2.60
2018-02-15T00:38:05.494Z,-2.60
2018-02-15T00:40:34.327Z,-2.60
2018-02-15T00:43:03.153Z,-2.50
2018-02-15T00:45:31.998Z,-2.40
2018-02-15T00:48:01.604Z,-2.40
2018-02-15T00:50:30.499Z,-2.50
2018-02-15T00:52:59.329Z,-2.40
2018-02-15T00:55:28.210Z,-2.40
2018-02-15T00:57:57.047Z,-2.20
2018-02-15T01:00:25.895Z,-2.10
2018-02-15T01:02:54.726Z,-2.10
2018-02-15T01:05:23.577Z,-2.00
2018-02-15T01:07:52.416Z,-1.90
2018-02-15T01:10:21.237Z,-1.80
2018-02-15T01:12:50.040Z,-1.70
2018-02-15T01:15:18.977Z,-1.70
2018-02-15T01:17:47.798Z,-1.70
2018-02-15T01:20:16.690Z,-1.50
2018-02-15T01:22:45.519Z,-1.40
2018-02-15T01:25:14.347Z,-1.30
2018-02-15T01:27:43.957Z,-1.50
2018-02-15T01:30:12.802Z,-1.50
2018-02-15T01:32:41.627Z,-1.50
2018-02-15T01:35:10.445Z,-1.50
2018-02-15T01:37:39.286Z,-1.50
2018-02-15T01:40:08.123Z,-1.60
2018-02-15T01:42:36.979Z,-1.50
2018-02-15T01:45:05.834Z,-1.30
2018-02-15T01:47:34.707Z,-1.30
2018-02-15T01:50:04.460Z,-1.30
2018-02-15T01:52:33.334Z,-1.40
2018-02-15T01:55:02.123Z,-1.30
2018-02-15T01:57:30.971Z,-1.40
2018-02-15T01:59:59.798Z,-1.30
2018-02-15T02:02:28.593Z,-1.20
2018-02-15T02:04:57.418Z,-1.10
2018-02-15T02:07:26.193Z,-1.00
2018-02-15T02:09:54.715Z,-1.00
2018-02-15T02:12:23.550Z,-0.90
2018-02-15T02:14:52.142Z,-0.70
2018-02-15T02:17:20.970Z,-0.60
2018-02-15T02:19:49.189Z,-0.60
2018-02-15T02:22:17.784Z,-0.60
2018-02-15T02:24:46.627Z,-0.50
2018-02-15T02:27:15.168Z,-0.40
2018-02-15T02:29:44.778Z,-0.50
2018-02-15T02:32:13.318Z,-0.50
2018-02-15T02:34:41.868Z,-0.40
2018-02-15T02:37:10.419Z,-0.50
2018-02-15T02:39:38.976Z,-0.40
2018-02-15T02:42:07.830Z,-0.40
2018-02-15T02:44:36.687Z,-0.40
2018-02-15T02:47:05.376Z,-0.50
2018-02-15T02:49:33.948Z,-0.50
2018-02-15T02:52:02.495Z,-0.50
2018-02-15T02:54:31.033Z,-0.50
2018-02-15T02:56:59.573Z,-0.40
2018-02-15T02:59:28.902Z,-0.50
2018-02-15T03:01:57.470Z,-0.50
2018-02-15T03:04:26.033Z,-0.50
2018-02-15T03:06:55.523Z,-0.20
2018-02-15T03:09:24.078Z,-0.30
2018-02-15T03:11:52.643Z,-0.30
2018-02-15T03:14:21.201Z,-0.30
2018-02-15T03:16:50.520Z,-0.20
2018-02-15T03:19:19.079Z,-0.20
2018-02-15T03:21:47.641Z,-0.10
2018-02-15T03:24:16.158Z,0.00
2018-02-15T03:26:44.726Z,-0.10
2018-02-15T03:29:13.986Z,0.00
2018-02-15T03:31:42.542Z,-0.10
2018-02-15T03:34:11.382Z,0.00
2018-02-15T03:36:39.882Z,0.10
2018-02-15T03:39:09.169Z,0.00
2018-02-15T03:41:38.425Z,0.10
2018-02-15T03:44:07.003Z,0.10
2018-02-15T03:46:35.579Z,0.00
2018-02-15T03:49:04.162Z,0.10
2018-02-15T03:51:32.700Z,0.00
2018-02-15T03:54:01.227Z,0.00
2018-02-15T03:56:29.917Z,0.10
2018-02-15T03:58:58.499Z,0.00
2018-02-15T04:01:27.048Z,0.00
2018-02-15T04:03:56.378Z,0.00
2018-02-15T04:06:24.863Z,0.00
2018-02-15T04:08:53.409Z,0.00
2018-02-15T04:11:21.913Z,0.00
2018-02-15T04:13:50.503Z,0.00
2018-02-15T04:16:19.254Z,0.00
2018-02-15T04:18:47.785Z,0.00
2018-02-15T04:21:16.295Z,0.00
2018-02-15T04:23:44.814Z,0.00
2018-02-15T04:26:13.370Z,0.00
2018-02-15T04:28:41.922Z,0.00
2018-02-15T04:31:10.516Z,0.10
2018-02-15T04:33:39.086Z,0.20
2018-02-15T04:36:07.637Z,0.10
2018-02-15T04:38:36.222Z,0.20
2018-02-15T04:41:04.757Z,0.20
2018-02-15T04:43:33.311Z,0.20
2018-02-15T04:46:01.870Z,0.10
2018-02-15T04:48:30.644Z,0.10
2018-02-15T04:50:59.198Z,0.20
2018-02-15T04:53:27.777Z,0.20
2018-02-15T04:55:56.330Z,0.20
2018-02-15T04:58:24.899Z,0.20
2018-02-15T05:00:53.592Z,0.20
2018-02-15T05:03:22.162Z,0.20
2018-02-15T05:05:50.711Z,0.20
2018-02-15T05:08:20.014Z,0.10
2018-02-15T05:10:49.329Z,0.10
2018-02-15T05:13:17.863Z,0.10
2018-02-15T05:15:46.424Z,0.10
2018-02-15T05:18:14.986Z,0.20
2018-02-15T05:20:43.653Z,0.20
2018-02-15T05:23:12.962Z,0.20
2018-02-15T05:25:41.486Z,0.20
2018-02-15T05:28:10.058Z,0.20
2018-02-15T05:30:38.598Z,0.20
2018-02-15T05:33:07.850Z,0.20
2018-02-15T05:35:36.393Z,0.20
2018-02-15T05:38:04.950Z,0.20
2018-02-15T05:40:34.274Z,0.20
2018-02-15T05:43:02.822Z,0.20
2018-02-15T05:45:31.362Z,0.20
2018-02-15T05:48:00.185Z,0.20
2018-02-15T05:50:28.733Z,0.20
2018-02-15T05:52:57.339Z,0.20
2018-02-15T05:55:25.890Z,0.20
2018-02-15T05:57:54.402Z,0.20
2018-02-15T06:00:22.990Z,0.30
2018-02-15T06:02:51.504Z,0.30
2018-02-15T06:05:20.829Z,0.30
2018-02-15T06:07:49.392Z,0.30
2018-02-15T06:10:17.933Z,0.30
2018-02-15T06:12:46.510Z,0.30
2018-02-15T06:15:15.015Z,0.30
2018-02-15T06:17:43.570Z,0.40
2018-02-15T06:20:12.864Z,0.40
2018-02-15T06:22:41.375Z,0.40
2018-02-15T06:25:09.974Z,0.40
2018-02-15T06:27:38.476Z,0.50
2018-02-15T06:30:07.011Z,0.50
2018-02-15T06:32:35.571Z,0.50
2018-02-15T06:35:04.138Z,0.50
2018-02-15T06:37:32.704Z,0.50
2018-02-15T06:40:02.022Z,0.50
2018-02-15T06:42:30.769Z,0.50
2018-02-15T06:44:59.306Z,0.50
2018-02-15T06:47:27.820Z,0.60
2018-02-15T06:49:56.366Z,0.60
2018-02-15T06:52:24.876Z,0.50
2018-02-15T06:54:53.440Z,0.50
2018-02-15T06:57:21.795Z,0.50
2018-02-15T06:59:50.355Z,0.60
2018-02-15T07:02:19.708Z,0.60
2018-02-15T07:04:48.261Z,0.60
2018-02-15T07:07:16.841Z,0.60
2018-02-15T07:09:45.386Z,0.60
2018-02-15T07:12:13.948Z,0.60
2018-02-15T07:14:42.503Z,0.60
2018-02-15T07:17:11.046Z,0.60
2018-02-15T07:19:40.354Z,0.60
2018-02-15T07:22:09.665Z,0.70
2018-02-15T07:24:38.222Z,0.60
2018-02-15T07:27:06.743Z,0.70
2018-02-15T07:29:35.289Z,0.70
2018-02-15T07:32:03.844Z,0.70
2018-02-15T07:34:32.363Z,0.70
2018-02-15T07:37:01.706Z,0.70
2018-02-15T07:39:30.222Z,0.70
2018-02-15T07:41:58.782Z,0.80
2018-02-15T07:44:27.348Z,0.80
2018-02-15T07:46:55.597Z,0.80
2018-02-15T07:49:24.019Z,0.80
2018-02-15T07:51:52.357Z,0.90
2018-02-15T07:54:20.726Z,0.90
2018-02-15T07:56:49.889Z,1.10
2018-02-15T07:59:18.279Z,1.00
2018-02-15T08:01:46.847Z,1.10
2018-02-15T08:04:15.379Z,1.10
2018-02-15T08:06:44.046Z,1.20
2018-02-15T08:09:13.378Z,1.20
2018-02-15T08:11:41.894Z,1.20
2018-02-15T08:14:10.467Z,1.20
2018-02-15T08:16:39.031Z,1.30
2018-02-15T08:19:07.568Z,1.30
2018-02-15T08:21:36.904Z,1.40
2018-02-15T08:24:05.420Z,1.40
2018-02-15T08:26:33.982Z,1.40
2018-02-15T08:29:02.534Z,1.30
2018-02-15T08:31:31.204Z,1.30
2018-02-15T08:34:00.498Z,1.30
2018-02-15T08:36:29.082Z,1.30
2018-02-15T08:38:57.730Z,1.30
2018-02-15T08:41:26.280Z,1.30
2018-02-15T08:43:54.836Z,1.30
2018-02-15T08:46:23.395Z,1.30
2018-02-15T08:48:51.942Z,1.40
2018-02-15T08:51:20.508Z,1.40
2018-02-15T08:53:49.064Z,1.30
2018-02-15T08:56:18.393Z,1.30
2018-02-15T08:58:46.995Z,1.20
2018-02-15T09:01:15.582Z,1.30
2018-02-15T09:03:44.129Z,1.30
2018-02-15T09:06:12.711Z,1.40
2018-02-15T09:08:42.030Z,1.30
2018-02-15T09:11:11.604Z,1.30
2018-02-15T09:13:41.111Z,1.30
2018-02-15T09:16:09.680Z,1.30
2018-02-15T09:18:38.503Z,1.30
2018-02-15T09:21:07.054Z,1.40
2018-02-15T09:23:35.624Z,1.30
2018-02-15T09:26:04.207Z,1.40
2018-02-15T09:28:33.179Z,1.30
2018-02-15T09:31:01.861Z,1.20
2018-02-15T09:33:30.362Z,1.20
2018-02-15T09:35:59.118Z,1.30
2018-02-15T09:38:27.656Z,1.30
2018-02-15T09:40:56.186Z,1.40
2018-02-15T09:43:24.761Z,1.40
2018-02-15T09:45:53.363Z,1.50
2018-02-15T09:48:21.945Z,1.60
2018-02-15T09:50:54.281Z,1.50
2018-02-15T09:53:23.636Z,1.30
2018-02-15T09:55:52.810Z,1.30
2018-02-15T09:58:21.375Z,1.40
2018-02-15T10:00:49.965Z,1.20
2018-02-15T10:03:19.245Z,1.50
2018-02-15T10:05:47.798Z,1.40
2018-02-15T10:08:16.331Z,1.50
2018-02-15T10:10:44.961Z,1.40
2018-02-15T10:13:13.460Z,1.50
2018-02-15T10:15:41.973Z,1.50
2018-02-15T10:18:10.506Z,1.40
2018-02-15T10:20:39.048Z,1.50
2018-02-15T10:23:08.445Z,1.50
2018-02-15T10:25:36.936Z,1.50
2018-02-15T10:28:05.724Z,1.50
2018-02-15T10:30:34.224Z,1.60
2018-02-15T10:33:02.727Z,1.60
2018-02-15T10:35:31.202Z,1.50
2018-02-15T10:37:59.697Z,1.40
2018-02-15T10:40:28.163Z,1.40
2018-02-15T10:42:56.652Z,1.40
2018-02-15T10:45:25.140Z,1.40
2018-02-15T10:47:53.605Z,1.30
2018-02-15T10:50:22.090Z,1.40
2018-02-15T10:52:50.562Z,1.50
2018-02-15T10:55:19.125Z,1.70
2018-02-15T10:57:47.614Z,1.80
2018-02-15T11:00:15.761Z,1.90
2018-02-15T11:02:55.047Z,2.00
2018-02-15T11:05:30.058Z,2.10
2018-02-15T11:07:58.609Z,2.10
2018-02-15T11:10:27.200Z,2.10
2018-02-15T11:12:55.757Z,2.00
2018-02-15T11:15:24.283Z,1.90
2018-02-15T11:17:52.903Z,1.70
2018-02-15T11:20:22.041Z,1.50
2018-02-15T11:22:50.588Z,1.50
2018-02-15T11:25:19.958Z,1.60
2018-02-15T11:27:48.518Z,1.50
2018-02-15T11:30:17.085Z,1.50
2018-02-15T11:32:46.442Z,1.60
2018-02-15T11:35:15.036Z,1.60
2018-02-15T11:37:43.622Z,1.70
2018-02-15T11:40:12.953Z,1.70
2018-02-15T11:42:41.515Z,1.70
2018-02-15T11:45:10.033Z,1.60
2018-02-15T11:47:39.644Z,1.50
2018-02-15T11:50:10.138Z,1.80
2018-02-15T11:52:38.702Z,1.70
2018-02-15T11:55:07.298Z,1.80
2018-02-15T11:57:35.858Z,1.70
2018-02-15T12:00:03.849Z,1.70
2018-02-15T12:02:33.142Z,1.70
2018-02-15T12:05:02.486Z,1.80
2018-02-15T12:07:31.801Z,1.90
2018-02-15T12:10:00.342Z,1.90
2018-02-15T12:12:28.898Z,2.00
2018-02-15T12:14:57.455Z,1.90
2018-02-15T12:17:26.837Z,1.90
2018-02-15T12:19:55.403Z,1.90
2018-02-15T12:22:23.978Z,1.90
2018-02-15T12:24:52.529Z,2.00
2018-02-15T12:27:26.464Z,2.00
2018-02-15T12:29:55.062Z,1.80
2018-02-15T12:32:23.654Z,1.90
2018-02-15T12:34:52.154Z,1.90
2018-02-15T12:37:20.690Z,1.90
2018-02-15T12:39:49.471Z,1.90
2018-02-15T12:42:18.793Z,1.80
2018-02-15T12:44:47.370Z,1.70
2018-02-15T12:47:15.801Z,1.70
2018-02-15T12:49:44.355Z,1.70
2018-02-15T12:52:12.945Z,1.70
2018-02-15T12:54:41.480Z,1.70
2018-02-15T12:57:10.809Z,1.70
2018-02-15T12:59:39.392Z,1.70
2018-02-15T13:02:07.987Z,1.70
2018-02-15T13:04:36.496Z,1.70
2018-02-15T13:07:05.134Z,1.70
2018-02-15T13:09:34.656Z,1.90
2018-02-15T13:12:03.234Z,1.80
2018-02-15T13:14:31.795Z,1.90
2018-02-15T13:16:59.757Z,1.90
2018-02-15T13:19:40.339Z,2.10
2018-02-15T13:22:19.903Z,2.10
2018-02-15T13:24:48.459Z,2.10
2018-02-15T13:27:17.019Z,2.10
2018-02-15T13:29:46.306Z,2.00
2018-02-15T13:32:14.851Z,2.00
2018-02-15T13:34:44.194Z,2.00
2018-02-15T13:37:12.939Z,2.00
2018-02-15T13:39:41.469Z,2.00
2018-02-15T13:42:10.770Z,2.00
2018-02-15T13:44:40.088Z,2.00
2018-02-15T13:47:09.407Z,2.00
2018-02-15T13:49:40.421Z,2.10
2018-02-15T13:52:09.974Z,2.00
2018-02-15T13:54:38.537Z,2.00
2018-02-15T13:57:06.821Z,2.00
2018-02-15T13:59:35.371Z,2.10
2018-02-15T14:02:04.697Z,2.10
2018-02-15T14:04:33.240Z,2.10
2018-02-15T14:07:02.761Z,2.10
2018-02-15T14:09:31.659Z,2.10
2018-02-15T14:12:00.371Z,2.20
2018-02-15T14:14:30.090Z,2.20
2018-02-15T14:16:58.666Z,2.20
2018-02-15T14:19:27.196Z,2.20
2018-02-15T14:21:56.513Z,2.20
2018-02-15T14:24:25.672Z,2.10
2018-02-15T14:26:54.206Z,2.10
2018-02-15T14:29:22.746Z,2.10
2018-02-15T14:31:51.313Z,2.10
2018-02-15T14:34:19.838Z,2.20
2018-02-15T14:36:49.120Z,2.20
2018-02-15T14:39:17.662Z,2.20
2018-02-15T14:41:46.252Z,2.20
2018-02-15T14:44:14.766Z,2.20
2018-02-15T14:46:43.303Z,2.20
2018-02-15T14:49:11.860Z,2.20
2018-02-15T14:51:40.414Z,2.10
2018-02-15T14:54:08.986Z,2.10
2018-02-15T14:56:37.500Z,2.00
2018-02-15T14:59:16.660Z,2.00
2018-02-15T15:01:45.189Z,2.10
2018-02-15T15:04:13.738Z,2.00
2018-02-15T15:06:42.300Z,2.00
2018-02-15T15:09:10.825Z,2.00
2018-02-15T15:11:39.386Z,2.00
2018-02-15T15:14:07.923Z,2.00
2018-02-15T15:16:37.228Z,2.10
2018-02-15T15:19:06.532Z,2.10
2018-02-15T15:21:35.112Z,2.10
2018-02-15T15:24:03.665Z,2.10
2018-02-15T15:26:37.579Z,2.10
2018-02-15T15:29:16.057Z,2.10
2018-02-15T15:31:44.610Z,2.00
2018-02-15T15:34:13.108Z,2.00
2018-02-15T15:36:44.804Z,2.00
2018-02-15T15:39:13.346Z,2.00
2018-02-15T15:41:41.869Z,2.00
2018-02-15T15:44:10.434Z,2.00
2018-02-15T15:46:39.000Z,2.00
2018-02-15T15:49:07.687Z,1.90
2018-02-15T15:51:36.221Z,1.90
2018-02-15T15:54:05.607Z,1.80
2018-02-15T15:56:34.174Z,1.80
2018-02-15T15:59:02.691Z,1.80
2018-02-15T16:01:32.026Z,1.80
2018-02-15T16:04:00.636Z,1.80
2018-02-15T16:06:29.229Z,1.80
2018-02-15T16:08:57.843Z,1.80
2018-02-15T16:11:26.394Z,1.80
2018-02-15T16:13:54.949Z,1.70
2018-02-15T16:16:23.474Z,1.70
2018-02-15T16:18:52.023Z,1.70
2018-02-15T16:21:20.577Z,1.70
2018-02-15T16:23:49.082Z,1.70
2018-02-15T16:26:17.612Z,1.70
2018-02-15T16:28:46.141Z,1.70
2018-02-15T16:31:14.693Z,1.70
2018-02-15T16:33:44.013Z,1.70
2018-02-15T16:36:28.931Z,1.60
2018-02-15T16:38:58.247Z,1.60
2018-02-15T16:41:27.589Z,1.70
2018-02-15T16:43:56.122Z,1.60
2018-02-15T16:46:25.389Z,1.70
2018-02-15T16:48:54.005Z,1.60
2018-02-15T16:51:22.579Z,1.70
2018-02-15T16:53:51.171Z,1.60
2018-02-15T16:56:20.491Z,1.60
2018-02-15T16:58:49.053Z,1.60
2018-02-15T17:01:17.630Z,1.70
2018-02-15T17:03:46.208Z,1.60
2018-02-15T17:06:14.782Z,1.60
2018-02-15T17:08:43.367Z,1.70
2018-02-15T17:11:11.919Z,1.70
2018-02-15T17:13:40.415Z,1.70
2018-02-15T17:16:08.958Z,1.70
2018-02-15T17:18:38.560Z,1.70
2018-02-15T17:21:07.115Z,1.70
2018-02-15T17:23:35.706Z,1.70
2018-02-15T17:26:04.257Z,1.70
2018-02-15T17:28:32.879Z,1.70
2018-02-15T17:31:02.208Z,1.60
2018-02-15T17:36:03.081Z,1.70
2018-02-15T17:38:31.621Z,1.70
2018-02-15T17:41:00.211Z,1.70
2018-02-15T17:43:29.555Z,1.70
2018-02-15T17:45:58.091Z,1.70
2018-02-15T17:48:26.863Z,1.60
2018-02-15T17:50:57.746Z,1.60
2018-02-15T17:53:26.366Z,1.70
2018-02-15T17:55:56.718Z,1.70
2018-02-15T17:58:26.610Z,1.60
2018-02-15T18:00:55.293Z,1.60
2018-02-15T18:03:23.867Z,1.60
2018-02-15T18:05:52.466Z,1.60
2018-02-15T18:08:21.067Z,1.60
2018-02-15T18:10:50.456Z,1.70
2018-02-15T18:13:19.983Z,1.70
2018-02-15T18:15:48.577Z,1.60
2018-02-15T18:18:17.188Z,1.70
2018-02-15T18:20:45.709Z,1.70
2018-02-15T18:23:14.308Z,1.70
2018-02-15T18:25:43.684Z,1.70
2018-02-15T18:28:12.257Z,1.70
2018-02-15T18:30:40.901Z,1.70
2018-02-15T18:33:09.517Z,1.70
2018-02-15T18:35:38.123Z,1.70
2018-02-15T18:38:06.753Z,1.70
2018-02-15T18:40:35.290Z,1.70
2018-02-15T18:43:03.877Z,1.80
2018-02-15T18:45:32.464Z,1.70
2018-02-15T18:48:01.071Z,1.80
2018-02-15T18:50:29.642Z,1.80
2018-02-15T18:52:59.003Z,1.80
2018-02-15T18:55:27.571Z,1.80
2018-02-15T18:57:56.170Z,1.80
2018-02-15T19:00:24.742Z,1.80
2018-02-15T19:02:53.247Z,1.80
2018-02-15T19:05:21.826Z,1.80
2018-02-15T19:07:50.380Z,1.70
2018-02-15T19:10:18.958Z,1.70
2018-02-15T19:12:47.538Z,1.70
2018-02-15T19:15:16.039Z,1.70
2018-02-15T19:17:44.603Z,1.70
2018-02-15T19:20:13.166Z,1.80
2018-02-15T19:22:41.799Z,1.80
2018-02-15T19:25:10.423Z,1.80
2018-02-15T19:27:39.702Z,1.80
2018-02-15T19:30:08.243Z,1.80
2018-02-15T19:32:36.847Z,1.80
2018-02-15T19:35:05.422Z,1.80
2018-02-15T19:37:33.999Z,1.80
2018-02-15T19:40:02.574Z,1.80
2018-02-15T19:42:31.326Z,1.70
2018-02-15T19:45:00.621Z,1.80
2018-02-15T19:47:30.185Z,1.70
2018-02-15T19:49:58.781Z,1.70
2018-02-15T19:52:27.329Z,1.70
2018-02-15T19:54:55.962Z,1.70
2018-02-15T19:57:27.574Z,1.70
2018-02-15T19:59:56.196Z,1.80
2018-02-15T20:02:24.845Z,1.80
2018-02-15T20:04:53.431Z,1.80
2018-02-15T20:07:22.263Z,1.80
2018-02-15T20:09:51.624Z,1.70
2018-02-15T20:12:20.241Z,1.70
2018-02-15T20:14:48.809Z,1.80
2018-02-15T20:17:17.330Z,1.80
2018-02-15T20:19:52.299Z,1.80
2018-02-15T20:22:20.890Z,1.80
2018-02-15T20:24:49.503Z,1.80
2018-02-15T20:27:23.519Z,1.80
2018-02-15T20:29:52.070Z,1.80
2018-02-15T20:32:20.646Z,1.80
2018-02-15T20:34:49.230Z,1.70
2018-02-15T20:37:17.776Z,1.70
2018-02-15T20:39:51.918Z,1.70
2018-02-15T20:42:21.330Z,1.70
2018-02-15T20:44:50.051Z,1.70
2018-02-15T20:47:19.219Z,1.70
2018-02-15T20:53:07.435Z,1.70
2018-02-15T20:55:45.741Z,1.70
2018-02-15T20:58:15.023Z,1.80
2018-02-15T21:00:43.572Z,1.70
2018-02-15T21:03:12.065Z,1.80
2018-02-15T21:05:40.646Z,1.80
2018-02-15T21:08:09.404Z,1.80
2018-02-15T21:10:37.920Z,1.80
2018-02-15T21:13:06.209Z,1.80
2018-02-15T21:15:34.809Z,1.80
2018-02-15T21:18:03.230Z,1.80
2018-02-15T21:20:31.788Z,1.70
2018-02-15T21:23:01.261Z,1.70
2018-02-15T21:25:29.864Z,1.70
2018-02-15T21:27:59.157Z,1.70
2018-02-15T21:30:39.202Z,1.70
2018-02-15T21:33:07.834Z,1.70
2018-02-15T21:35:36.414Z,1.70
2018-02-15T21:38:05.013Z,1.80
2018-02-15T21:40:33.611Z,1.80
2018-02-15T21:43:02.157Z,1.80
2018-02-15T21:45:30.731Z,1.80
2018-02-15T21:47:59.288Z,1.80
2018-02-15T21:50:27.903Z,1.80
2018-02-15T21:52:56.676Z,1.80
2018-02-15T21:55:25.986Z,1.80
2018-02-15T21:57:54.571Z,1.80
2018-02-15T22:00:23.934Z,1.80
2018-02-15T22:02:52.498Z,1.80
2018-02-15T22:05:21.083Z,1.80
2018-02-15T22:07:49.615Z,1.80
2018-02-15T22:10:18.961Z,1.80
2018-02-15T22:12:47.543Z,1.80
2018-02-15T22:15:16.125Z,1.80
2018-02-15T22:17:44.882Z,1.80
2018-02-15T22:20:13.458Z,1.80
2018-02-15T22:22:41.960Z,1.80
2018-02-15T22:25:10.455Z,1.80
2018-02-15T22:27:38.918Z,1.80
2018-02-15T22:30:07.414Z,1.80
2018-02-15T22:32:35.881Z,1.80
2018-02-15T22:35:04.384Z,1.80
2018-02-15T22:37:32.869Z,1.70
2018-02-15T22:40:01.352Z,1.80
2018-02-15T22:42:29.872Z,1.80
2018-02-15T22:44:58.370Z,1.80
2018-02-15T22:47:27.629Z,1.80
2018-02-15T22:49:56.126Z,1.80
2018-02-15T22:52:24.587Z,1.80
2018-02-15T22:54:53.086Z,1.80
2018-02-15T22:57:21.554Z,1.80
2018-02-15T22:59:50.055Z,1.80
2018-02-15T23:02:18.553Z,1.80
2018-02-15T23:04:47.790Z,1.70
2018-02-15T23:07:16.313Z,1.70
2018-02-15T23:09:44.779Z,1.80
2018-02-15T23:12:14.467Z,1.70
2018-02-15T23:14:43.169Z,1.70
2018-02-15T23:17:11.637Z,1.70
2018-02-15T23:19:40.117Z,1.70
2018-02-15T23:22:09.896Z,1.70
2018-02-15T23:24:38.386Z,1.70
2018-02-15T23:27:06.887Z,1.70
2018-02-15T23:29:35.957Z,1.70
2018-02-15T23:32:04.445Z,1.70
2018-02-15T23:34:32.916Z,1.80
2018-02-15T23:37:01.445Z,1.80
2018-02-15T23:39:29.932Z,1.80
2018-02-15T23:41:58.395Z,1.70
2018-02-15T23:44:26.883Z,1.80
2018-02-15T23:46:55.383Z,1.80
2018-02-15T23:49:23.874Z,1.80
2018-02-15T23:51:53.177Z,1.80
2018-02-15T23:54:21.646Z,1.80
2018-02-15T23:56:50.145Z,1.80
2018-02-15T23:59:19.390Z,1.80
